createdAt,value
2019-02-19T00:05:44.019Z,99287.39
2019-02-19T00:11:48.573Z,99281.24
2019-02-19T00:17:53.276Z,99285.73
2019-02-19T00:23:58.387Z,99281.75
2019-02-19T00:30:04.030Z,99281.42
2019-02-19T00:36:08.832Z,99280.94
2019-02-19T00:42:13.413Z,99283.57
2019-02-19T00:48:18.107Z,99284.23
2019-02-19T00:54:22.650Z,99279.22
2019-02-19T01:00:27.274Z,99285.55
2019-02-19T01:06:32.036Z,99278.77
2019-02-19T01:12:36.670Z,99279.44
2019-02-19T01:18:42.919Z,99278.41
2019-02-19T01:24:47.612Z,99286.39
2019-02-19T01:30:52.842Z,99283.92
2019-02-19T01:36:57.416Z,99278.75
2019-02-19T01:43:02.265Z,99282.42
2019-02-19T01:49:06.815Z,99277.28
2019-02-19T01:55:11.474Z,99275.36
2019-02-19T02:01:16.027Z,99277.33
2019-02-19T02:07:21.957Z,99264.23
2019-02-19T02:13:26.540Z,99254.73
2019-02-19T02:19:31.714Z,99259.30
2019-02-19T02:25:36.539Z,99261.95
2019-02-19T02:31:41.519Z,99253.69
2019-02-19T02:37:49.258Z,99253.87
2019-02-19T02:43:53.969Z,99258.55
2019-02-19T02:49:58.985Z,99250.16
2019-02-19T02:56:03.666Z,99254.67
2019-02-19T03:02:08.459Z,99257.75
2019-02-19T03:08:13.220Z,99243.73
2019-02-19T03:14:18.029Z,99245.08
2019-02-19T03:20:23.863Z,99227.68
2019-02-19T03:26:29.092Z,99228.17
2019-02-19T03:32:33.902Z,99232.02
2019-02-19T03:38:38.455Z,99226.12
2019-02-19T03:44:43.319Z,99240.84
2019-02-19T03:50:47.954Z,99236.60
2019-02-19T03:56:52.661Z,99243.11
2019-02-19T04:02:57.471Z,99244.44
2019-02-19T04:09:02.284Z,99251.31
2019-02-19T04:15:08.561Z,99249.21
2019-02-19T04:21:13.124Z,99254.39
2019-02-19T04:27:17.727Z,99264.69
2019-02-19T04:33:22.396Z,99258.93
2019-02-19T04:39:30.674Z,99244.07
2019-02-19T04:45:35.471Z,99246.09
2019-02-19T04:51:40.110Z,99250.55
2019-02-19T04:57:44.880Z,99249.36
2019-02-19T05:03:49.438Z,99258.09
2019-02-19T05:09:55.130Z,99261.42
2019-02-19T05:15:59.743Z,99281.14
2019-02-19T05:22:04.560Z,99277.67
2019-02-19T05:28:09.126Z,99282.99
2019-02-19T05:34:13.750Z,99288.06
2019-02-19T05:40:18.489Z,99297.86
2019-02-19T05:46:23.040Z,99302.63
2019-02-19T05:52:29.265Z,99298.13
2019-02-19T05:58:34.010Z,99296.34
2019-02-19T06:04:38.890Z,99298.70
2019-02-19T06:10:44.182Z,99305.34
2019-02-19T06:16:49.052Z,99297.70
2019-02-19T06:22:55.229Z,99298.36
2019-02-19T06:29:01.967Z,99313.16
2019-02-19T06:35:08.033Z,99314.81
2019-02-19T06:41:15.034Z,99330.27
2019-02-19T06:47:19.960Z,99348.70
2019-02-19T06:53:24.825Z,99371.17
2019-02-19T06:59:29.935Z,99365.69
2019-02-19T07:05:34.649Z,99369.68
2019-02-19T07:11:39.212Z,99360.19
2019-02-19T07:17:43.761Z,99352.20
2019-02-19T07:23:48.350Z,99356.70
2019-02-19T07:29:52.902Z,99372.16
2019-02-19T07:35:57.451Z,99379.42
2019-02-19T07:42:02.146Z,99386.45
2019-02-19T07:48:06.740Z,99391.64
2019-02-19T08:00:21.222Z,99403.05
2019-02-19T08:06:25.793Z,99400.68
2019-02-19T08:12:30.504Z,99408.66
2019-02-19T08:18:35.353Z,99412.42
2019-02-19T08:24:39.984Z,99424.84
2019-02-19T08:30:44.612Z,99415.48
2019-02-19T08:36:49.227Z,99417.41
2019-02-19T08:42:53.865Z,99427.43
2019-02-19T08:49:00.884Z,99433.19
2019-02-19T08:55:06.689Z,99431.51
2019-02-19T09:01:11.463Z,99443.95
2019-02-19T09:07:16.300Z,99442.27
2019-02-19T09:13:21.030Z,99438.69
2019-02-19T09:19:25.575Z,99446.14
2019-02-19T09:25:30.616Z,99454.39
2019-02-19T09:31:35.317Z,99472.09
2019-02-19T09:37:40.055Z,99469.81
2019-02-19T09:43:44.787Z,99473.55
2019-02-19T09:49:49.369Z,99474.75
2019-02-19T09:55:54.533Z,99473.48
2019-02-19T10:01:59.276Z,99483.58
2019-02-19T10:08:03.934Z,99476.41
2019-02-19T10:14:08.715Z,99472.93
2019-02-19T10:20:13.572Z,99471.45
2019-02-19T10:26:18.201Z,99477.63
2019-02-19T10:32:23.780Z,99491.05
2019-02-19T10:38:28.422Z,99490.84
2019-02-19T10:44:33.550Z,99495.86
2019-02-19T10:50:38.442Z,99487.75
2019-02-19T10:56:43.000Z,99486.17
2019-02-19T11:02:48.013Z,99493.33
2019-02-19T11:08:52.721Z,99482.56
2019-02-19T11:14:57.261Z,99469.88
2019-02-19T11:21:02.669Z,99471.53
2019-02-19T11:27:07.245Z,99463.48
2019-02-19T11:33:11.949Z,99442.39
2019-02-19T11:39:16.803Z,99444.23
2019-02-19T11:45:21.776Z,99440.98
2019-02-19T11:51:26.347Z,99445.55
2019-02-19T11:57:31.324Z,99427.80
2019-02-19T12:03:35.904Z,99445.48
2019-02-19T12:09:41.812Z,99449.56
2019-02-19T12:15:50.120Z,99441.31
2019-02-19T12:21:54.765Z,99441.57
2019-02-19T12:27:59.446Z,99436.55
2019-02-19T12:34:04.492Z,99433.02
2019-02-19T12:40:12.262Z,99437.13
2019-02-19T12:46:18.143Z,99443.63
2019-02-19T12:52:22.770Z,99438.81
2019-02-19T12:58:27.511Z,99437.79
2019-02-19T13:04:32.395Z,99444.34
2019-02-19T13:10:36.962Z,99442.37
2019-02-19T13:16:41.531Z,99443.50
2019-02-19T13:22:46.110Z,99437.21
2019-02-19T13:28:50.764Z,99441.54
2019-02-19T13:34:56.910Z,99435.77
2019-02-19T13:41:01.462Z,99449.10
2019-02-19T13:47:06.192Z,99436.82
2019-02-19T13:53:15.123Z,99442.84
2019-02-19T13:59:19.829Z,99439.59
2019-02-19T14:05:25.338Z,99444.00
2019-02-19T14:11:30.996Z,99447.28
2019-02-19T14:17:35.901Z,99453.00
2019-02-19T14:23:58.665Z,99446.89
2019-02-19T14:30:19.876Z,99449.19
2019-02-19T14:36:38.970Z,99446.02
2019-02-19T14:43:01.151Z,99460.95
2019-02-19T14:49:34.077Z,99453.60
2019-02-19T14:55:32.724Z,99450.84
2019-02-19T15:01:54.928Z,99451.81
2019-02-19T15:08:05.339Z,99450.19
2019-02-19T15:14:14.659Z,99446.77
2019-02-19T15:20:29.884Z,99455.17
2019-02-19T15:26:34.220Z,99462.33
2019-02-19T15:32:49.481Z,99473.44
2019-02-19T15:38:58.647Z,99469.99
2019-02-19T15:45:20.886Z,99473.45
2019-02-19T15:51:30.007Z,99476.88
2019-02-19T15:57:45.580Z,99480.91
2019-02-19T16:03:51.798Z,99490.14
2019-02-19T16:09:59.717Z,99495.80
2019-02-19T16:16:12.121Z,99501.16
2019-02-19T16:22:33.528Z,99489.56
2019-02-19T16:28:42.815Z,99493.48
2019-02-19T16:34:56.576Z,99496.38
2019-02-19T16:41:19.481Z,99511.66
2019-02-19T16:47:26.627Z,99521.09
2019-02-19T16:53:41.472Z,99524.89
2019-02-19T17:00:03.538Z,99530.38
2019-02-19T17:06:09.812Z,99527.08
2019-02-19T17:12:20.095Z,99533.73
2019-02-19T17:18:32.391Z,99515.04
2019-02-19T17:24:38.683Z,99531.25
2019-02-19T17:30:47.685Z,99541.95
2019-02-19T17:36:53.912Z,99544.80
2019-02-19T17:43:00.214Z,99553.53
2019-02-19T17:49:15.246Z,99542.91
2019-02-19T17:55:34.471Z,99550.20
2019-02-19T18:01:56.290Z,99552.00
2019-02-19T18:08:12.522Z,99571.01
2019-02-19T18:14:24.220Z,99560.55
2019-02-19T18:20:29.441Z,99554.56
2019-02-19T18:26:34.155Z,99556.61
2019-02-19T18:32:38.812Z,99567.03
2019-02-19T18:38:43.704Z,99566.01
2019-02-19T18:44:48.268Z,99573.95
2019-02-19T18:50:58.539Z,99577.46
2019-02-19T18:56:59.380Z,99576.48
2019-02-19T19:03:06.645Z,99582.30
2019-02-19T19:09:11.305Z,99583.95
2019-02-19T19:15:15.945Z,99585.84
2019-02-19T19:21:20.587Z,99587.61
2019-02-19T19:27:26.157Z,99596.41
2019-02-19T19:33:30.879Z,99595.08
2019-02-19T19:39:35.552Z,99601.53
2019-02-19T19:45:40.129Z,99613.13
2019-02-19T19:51:44.774Z,99613.73
2019-02-19T19:57:49.546Z,99625.93
2019-02-19T20:03:54.186Z,99628.30
2019-02-19T20:09:59.067Z,99623.76
2019-02-19T20:16:03.921Z,99620.73
2019-02-19T20:22:08.478Z,99625.79
2019-02-19T20:28:13.180Z,99635.44
2019-02-19T20:34:19.793Z,99648.38
2019-02-19T20:40:24.452Z,99646.28
2019-02-19T20:46:29.068Z,99649.97
2019-02-19T20:52:34.420Z,99651.63
2019-02-19T20:58:39.118Z,99660.86
2019-02-19T21:04:43.656Z,99654.30
2019-02-19T21:10:48.313Z,99654.34
2019-02-19T21:16:53.025Z,99650.03
2019-02-19T21:22:57.718Z,99656.22
2019-02-19T21:29:03.113Z,99659.57
2019-02-19T21:35:09.304Z,99661.47
2019-02-19T21:41:14.061Z,99672.66
2019-02-19T21:47:18.680Z,99669.38
2019-02-19T21:53:23.377Z,99675.58
2019-02-19T21:59:28.094Z,99681.97
2019-02-19T22:05:33.092Z,99687.69
2019-02-19T22:11:37.646Z,99687.03
2019-02-19T22:17:42.383Z,99694.77
2019-02-19T22:23:47.131Z,99695.09
2019-02-19T22:29:51.886Z,99692.10
2019-02-19T22:35:56.450Z,99706.45
2019-02-19T22:42:01.242Z,99700.95
2019-02-19T22:48:06.524Z,99710.10
2019-02-19T22:54:22.182Z,99701.61
2019-02-19T23:00:47.529Z,99708.78
2019-02-19T23:06:52.155Z,99708.28
2019-02-19T23:12:57.325Z,99719.59
2019-02-19T23:19:02.242Z,99716.77
2019-02-19T23:25:07.546Z,99724.45
2019-02-19T23:31:12.255Z,99729.59
2019-02-19T23:37:16.881Z,99730.79
2019-02-19T23:43:21.501Z,99737.76
2019-02-19T23:49:26.581Z,99748.06
2019-02-19T23:55:31.955Z,99747.53
